Cass City, Michigan
Current Conditions -  °F | °C
As of 12:54 AM on Monday 20 Oct 2014 (Local Time) from KCFS Reporting Station
Unknown Precip Unknown Precip  
Wind Chill: 42°   Ceiling: 8000
Heat Index: 46°   Visibility: 10mi
Dew Point: 40°   Wind: 6mph
Humidity: 81%   Direction: 180°S
Pressure: 29.92"   Gusts: NA
Location:  43.6°N, 83.17°W
Report Text: KCFS 200454Z AUTO 18005KT 10SM UP OVC080 08/05 A2992 RMK AO2 T00750045
Loading
Personal Weather Stations






























Interactive Weather Map
Tropical Storm Tracking
New forecast layout! Learn more

10-Day Weather Forecast

Advertisements
Track Severe Weather on mobile